Ganges, Ohio
Current Conditions -  °F | °C
As of 5:00 PM on Monday 26 Jan 2015 (Local Time) from KMFD Reporting Station
Haze Haze  
Wind Chill:   Ceiling: 1500
Heat Index: 17°   Visibility: 5mi
Dew Point: 12°   Wind: 13mph
Humidity: 81%   Direction: 340°NNW
Pressure: 29.85"   Gusts: NA
Location:  40.8848°N, 82.6515°W
Report Text: KMFD 262200Z 34011KT 5SM HZ OVC015 M08/M11 A2985 RMK AO2 T10831111
Loading
Personal Weather Stations






























Interactive Weather Map New forecast layout! Learn more

10-Day Weather Forecast

Advertisements
Track Severe Weather on mobile